createdAt,value
2019-05-05T00:00:16.729Z,1006.93
2019-05-05T00:00:57.296Z,1006.93
2019-05-05T00:01:37.839Z,1006.95
2019-05-05T00:02:18.401Z,1006.98
2019-05-05T00:02:58.946Z,1006.99
2019-05-05T00:03:39.517Z,1006.97
2019-05-05T00:04:20.088Z,1006.98
2019-05-05T00:05:00.670Z,1007.01
2019-05-05T00:05:41.238Z,1007.01
2019-05-05T00:06:21.804Z,1007.01
2019-05-05T00:07:04.346Z,1007
2019-05-05T00:07:44.783Z,1007.02
2019-05-05T00:08:24.537Z,1007.03
2019-05-05T00:09:05.375Z,1007.03
2019-05-05T00:09:45.028Z,1007
2019-05-05T00:10:25.359Z,1007.13
2019-05-05T00:11:05.746Z,1007.07
2019-05-05T00:11:46.310Z,1007.05
2019-05-05T00:12:26.855Z,1007.07
2019-05-05T00:13:07.435Z,1007.06
2019-05-05T00:13:47.997Z,1007.08
2019-05-05T00:14:28.548Z,1007.08
2019-05-05T00:15:09.164Z,1007.15
2019-05-05T00:15:49.706Z,1007.1
2019-05-05T00:16:30.270Z,1007.12
2019-05-05T00:17:10.841Z,1007.12
2019-05-05T00:17:51.415Z,1007.13
2019-05-05T00:18:31.967Z,1007.09
2019-05-05T00:19:12.545Z,1007.09
2019-05-05T00:19:54.920Z,1007.16
2019-05-05T00:20:34.363Z,1007.13
2019-05-05T00:21:15.080Z,1007.15
2019-05-05T00:21:55.170Z,1007.14
2019-05-05T00:22:35.418Z,1007.15
2019-05-05T00:23:16.011Z,1007.12
2019-05-05T00:23:56.601Z,1007.1
2019-05-05T00:24:37.158Z,1007.15
2019-05-05T00:25:17.729Z,1007.15
2019-05-05T00:25:58.317Z,1007.14
2019-05-05T00:26:38.880Z,1007.14
2019-05-05T00:27:19.444Z,1007.18
2019-05-05T00:28:00.110Z,1007.14
2019-05-05T00:28:40.664Z,1007.16
2019-05-05T00:29:21.239Z,1007.13
2019-05-05T00:30:01.798Z,1007.16
2019-05-05T00:30:44.634Z,1007.17
2019-05-05T00:31:24.223Z,1007.15
2019-05-05T00:32:04.915Z,1007.14
2019-05-05T00:32:44.397Z,1007.17
2019-05-05T00:33:25.069Z,1007.17
2019-05-05T00:34:05.508Z,1007.21
2019-05-05T00:34:46.090Z,1007.21
2019-05-05T00:35:26.658Z,1007.16
2019-05-05T00:36:07.879Z,1007.22
2019-05-05T00:36:47.814Z,1007.21
2019-05-05T00:37:28.373Z,1007.2
2019-05-05T00:38:08.938Z,1007.22
2019-05-05T00:38:49.508Z,1007.23
2019-05-05T00:39:30.091Z,1007.22
2019-05-05T00:40:10.638Z,1007.24
2019-05-05T00:40:51.219Z,1007.3
2019-05-05T00:41:31.792Z,1007.27
2019-05-05T00:42:12.471Z,1007.28
2019-05-05T00:42:54.685Z,1007.27
2019-05-05T00:43:34.495Z,1007.28
2019-05-05T00:44:15.301Z,1007.27
2019-05-05T00:44:55.307Z,1007.27
2019-05-05T00:45:35.862Z,1007.24
2019-05-05T00:46:16.634Z,1007.24
2019-05-05T00:46:57.055Z,1007.25
2019-05-05T00:47:38.218Z,1007.24
2019-05-05T00:48:18.811Z,1007.26
2019-05-05T00:48:59.397Z,1007.2
2019-05-05T00:49:46.244Z,1007.3
2019-05-05T00:50:20.628Z,1007.27
2019-05-05T00:51:01.184Z,1007.26
2019-05-05T00:51:41.737Z,1007.24
2019-05-05T00:52:24.419Z,1007.26
2019-05-05T00:53:03.360Z,1007.28
2019-05-05T00:53:44.831Z,1007.28
2019-05-05T00:54:24.442Z,1007.24
2019-05-05T00:55:04.667Z,1007.27
2019-05-05T00:55:45.149Z,1007.31
2019-05-05T00:56:25.708Z,1007.28
2019-05-05T00:57:06.354Z,1007.24
2019-05-05T00:57:46.923Z,1007.26
2019-05-05T00:58:27.488Z,1007.26
2019-05-05T00:59:08.039Z,1007.23
2019-05-05T00:59:48.590Z,1007.3
2019-05-05T01:00:29.154Z,1007.26
2019-05-05T01:01:09.709Z,1007.25
2019-05-05T01:01:50.289Z,1007.27
2019-05-05T01:02:30.852Z,1007.24
2019-05-05T01:03:11.405Z,1007.27
2019-05-05T01:03:51.961Z,1007.31
2019-05-05T01:04:32.509Z,1007.24
2019-05-05T01:05:14.857Z,1007.29
2019-05-05T01:05:55.288Z,1007.28
2019-05-05T01:06:34.571Z,1007.28
2019-05-05T01:07:14.800Z,1007.31
2019-05-05T01:10:28.777Z,1007.32
2019-05-05T01:11:09.272Z,1007.32
2019-05-05T01:11:49.837Z,1007.33
2019-05-05T01:12:30.396Z,1007.33
2019-05-05T01:13:10.950Z,1007.32
2019-05-05T01:13:51.510Z,1007.32
2019-05-05T01:14:33.803Z,1007.37
2019-05-05T01:15:12.610Z,1007.36
2019-05-05T01:15:54.175Z,1007.36
2019-05-05T01:16:35.106Z,1007.35
2019-05-05T01:17:14.763Z,1007.36
2019-05-05T01:17:55.334Z,1007.35
2019-05-05T01:18:35.405Z,1007.43
2019-05-05T01:19:16.000Z,1007.38
2019-05-05T01:20:02.945Z,1007.42
2019-05-05T01:20:37.116Z,1007.42
2019-05-05T01:21:17.674Z,1007.42
2019-05-05T01:21:58.248Z,1007.44
2019-05-05T01:22:38.819Z,1007.48
2019-05-05T01:23:19.376Z,1007.46
2019-05-05T01:23:59.928Z,1007.53
2019-05-05T01:24:40.486Z,1007.5
2019-05-05T01:25:21.045Z,1007.58
2019-05-05T01:26:01.989Z,1007.58
2019-05-05T01:26:44.410Z,1007.59
2019-05-05T01:27:25.143Z,1007.59
2019-05-05T01:28:04.964Z,1007.61
2019-05-05T01:28:44.743Z,1007.6
2019-05-05T01:29:25.299Z,1007.61
2019-05-05T01:32:24.653Z,1007.66
2019-05-05T01:33:05.446Z,1007.71
2019-05-05T01:33:44.908Z,1007.73
2019-05-05T01:34:25.254Z,1007.71
2019-05-05T01:35:05.817Z,1007.77
2019-05-05T01:35:46.385Z,1007.73
2019-05-05T01:36:26.942Z,1007.81
2019-05-05T01:37:07.498Z,1007.75
2019-05-05T01:37:48.067Z,1007.82
2019-05-05T01:38:28.628Z,1007.77
2019-05-05T01:39:09.190Z,1007.85
2019-05-05T01:39:49.743Z,1007.84
2019-05-05T01:40:30.353Z,1007.88
2019-05-05T01:41:10.923Z,1007.85
2019-05-05T01:41:51.479Z,1007.91
2019-05-05T01:42:32.039Z,1007.9
2019-05-05T01:43:14.436Z,1007.92
2019-05-05T01:43:54.176Z,1007.92
2019-05-05T01:44:35.196Z,1007.89
2019-05-05T01:45:14.918Z,1007.95
2019-05-05T01:45:54.905Z,1007.94
2019-05-05T01:46:35.516Z,1007.99
2019-05-05T01:47:16.037Z,1007.99
2019-05-05T01:47:56.602Z,1007.97
2019-05-05T01:48:37.170Z,1007.98
2019-05-05T01:49:17.718Z,1008
2019-05-05T01:49:58.279Z,1008.04
2019-05-05T01:50:38.833Z,1008.08
2019-05-05T01:51:19.437Z,1008.05
2019-05-05T01:51:59.985Z,1008.1
2019-05-05T01:52:40.541Z,1008.07
2019-05-05T01:53:21.099Z,1008.14
2019-05-05T01:54:01.709Z,1008.11
2019-05-05T01:54:44.370Z,1008.11
2019-05-05T01:55:22.820Z,1008.12
2019-05-05T01:56:04.820Z,1008.19
2019-05-05T01:56:44.502Z,1008.16
2019-05-05T01:57:25.154Z,1008.15
2019-05-05T01:58:05.055Z,1008.17
2019-05-05T01:58:45.622Z,1008.23
2019-05-05T01:59:26.181Z,1008.24
2019-05-05T02:00:06.731Z,1008.26
2019-05-05T02:00:47.297Z,1008.26
2019-05-05T02:01:27.837Z,1008.25
2019-05-05T02:02:08.401Z,1008.34
2019-05-05T02:02:48.972Z,1008.32
2019-05-05T02:03:29.552Z,1008.28
2019-05-05T02:04:10.095Z,1008.32
2019-05-05T02:04:50.660Z,1008.3
2019-05-05T02:05:31.223Z,1008.35
2019-05-05T02:06:11.787Z,1008.35
2019-05-05T02:06:52.339Z,1008.34
2019-05-05T02:07:34.214Z,1008.34
2019-05-05T02:08:15.284Z,1008.38
2019-05-05T02:08:54.709Z,1008.34
2019-05-05T02:09:35.335Z,1008.37
2019-05-05T02:10:15.370Z,1008.37
2019-05-05T02:10:55.689Z,1008.35
2019-05-05T02:11:36.235Z,1008.37
2019-05-05T02:12:16.788Z,1008.36
2019-05-05T02:12:57.341Z,1008.38
2019-05-05T02:13:37.912Z,1008.37
2019-05-05T02:14:18.489Z,1008.36
2019-05-05T02:14:59.037Z,1008.39
2019-05-05T02:15:39.591Z,1008.39
2019-05-05T02:16:20.183Z,1008.38
2019-05-05T02:17:00.745Z,1008.4
2019-05-05T02:17:41.307Z,1008.38
2019-05-05T02:18:21.866Z,1008.41
2019-05-05T02:19:02.415Z,1008.4
2019-05-05T02:19:44.284Z,1008.41
2019-05-05T02:20:29.343Z,1008.42
2019-05-05T02:21:04.949Z,1008.39
2019-05-05T02:21:45.297Z,1008.42
2019-05-05T02:22:25.445Z,1008.38
2019-05-05T02:23:05.787Z,1008.41
2019-05-05T02:23:46.345Z,1008.39
2019-05-05T02:24:26.916Z,1008.37
2019-05-05T02:25:07.480Z,1008.35
2019-05-05T02:25:48.046Z,1008.35
2019-05-05T02:26:28.611Z,1008.42
2019-05-05T02:27:09.181Z,1008.38
2019-05-05T02:27:49.729Z,1008.38
2019-05-05T02:28:30.308Z,1008.42
2019-05-05T02:29:10.860Z,1008.38
2019-05-05T02:29:51.413Z,1008.38
2019-05-05T02:30:31.969Z,1008.36
2019-05-05T02:31:12.514Z,1008.42
2019-05-05T02:31:55.156Z,1008.41
2019-05-05T02:32:36.084Z,1008.41
2019-05-05T02:33:15.629Z,1008.43
2019-05-05T02:33:56.773Z,1008.43
2019-05-05T02:34:35.939Z,1008.44
2019-05-05T02:35:16.559Z,1008.41
2019-05-05T02:35:56.430Z,1008.39
2019-05-05T02:36:36.995Z,1008.42
2019-05-05T02:37:17.557Z,1008.43
2019-05-05T02:37:58.119Z,1008.46
2019-05-05T02:38:38.677Z,1008.45
2019-05-05T02:39:19.229Z,1008.51
2019-05-05T02:40:04.020Z,1008.49
2019-05-05T02:40:40.360Z,1008.44
2019-05-05T02:41:20.925Z,1008.45
2019-05-05T02:42:01.477Z,1008.48
2019-05-05T02:42:42.035Z,1008.52
2019-05-05T02:43:24.980Z,1008.53
2019-05-05T02:44:05.024Z,1008.54
2019-05-05T02:44:45.486Z,1008.54
2019-05-05T02:45:24.985Z,1008.53
2019-05-05T02:46:05.581Z,1008.53
2019-05-05T02:46:45.361Z,1008.55
2019-05-05T02:47:25.929Z,1008.59
2019-05-05T02:48:06.514Z,1008.59
2019-05-05T02:48:47.068Z,1008.6
2019-05-05T02:49:27.625Z,1008.62
2019-05-05T02:50:08.175Z,1008.59
2019-05-05T02:50:55.837Z,1008.65
2019-05-05T02:51:29.322Z,1008.66
2019-05-05T02:52:09.876Z,1008.67
2019-05-05T02:52:50.442Z,1008.7
2019-05-05T02:53:31.025Z,1008.71
2019-05-05T02:54:13.505Z,1008.69
2019-05-05T02:54:53.611Z,1008.7
2019-05-05T02:55:34.629Z,1008.73
2019-05-05T02:56:14.599Z,1008.71
2019-05-05T02:56:54.244Z,1008.74
2019-05-05T02:57:34.581Z,1008.73
2019-05-05T02:58:14.979Z,1008.71
2019-05-05T02:58:55.543Z,1008.7
2019-05-05T02:59:36.090Z,1008.71
2019-05-05T03:00:16.646Z,1008.76
2019-05-05T03:00:57.203Z,1008.81
2019-05-05T03:01:37.762Z,1008.78
2019-05-05T03:02:18.338Z,1008.79
2019-05-05T03:02:58.900Z,1008.79
2019-05-05T03:03:39.453Z,1008.81
2019-05-05T03:04:20.012Z,1008.83
2019-05-05T03:05:00.559Z,1008.85
2019-05-05T03:05:41.123Z,1008.8
2019-05-05T03:06:23.590Z,1008.79
2019-05-05T03:07:04.486Z,1008.81
2019-05-05T03:07:43.726Z,1008.82
2019-05-05T03:08:24.223Z,1008.83
2019-05-05T03:09:04.478Z,1008.82
2019-05-05T03:09:44.526Z,1008.84
2019-05-05T03:10:25.078Z,1008.83
2019-05-05T03:11:05.624Z,1008.83
2019-05-05T03:11:46.184Z,1008.86
2019-05-05T03:12:26.749Z,1008.88
2019-05-05T03:13:07.308Z,1008.9
2019-05-05T03:13:47.878Z,1008.91
2019-05-05T03:14:28.429Z,1008.91
2019-05-05T03:15:08.993Z,1008.92
2019-05-05T03:15:49.545Z,1008.94
2019-05-05T03:16:30.091Z,1008.97
2019-05-05T03:17:10.646Z,1008.95
2019-05-05T03:17:51.205Z,1008.95
2019-05-05T03:18:33.664Z,1008.97
2019-05-05T03:19:13.990Z,1008.95
2019-05-05T03:19:53.507Z,1008.97
2019-05-05T03:20:34.316Z,1008.96
2019-05-05T03:21:14.098Z,1008.99
2019-05-05T03:21:54.632Z,1009
2019-05-05T03:22:35.142Z,1009
2019-05-05T03:23:15.704Z,1009.02
2019-05-05T03:23:56.254Z,1009.01
2019-05-05T03:24:36.844Z,1009.05
2019-05-05T03:25:17.412Z,1009.01
2019-05-05T03:25:58.009Z,1009.03
2019-05-05T03:26:38.559Z,1009.05
2019-05-05T03:27:19.117Z,1009.05
2019-05-05T03:27:59.676Z,1009.09
2019-05-05T03:28:40.247Z,1009.09
2019-05-05T03:29:20.806Z,1009.06
2019-05-05T03:30:04.534Z,1009.11
2019-05-05T03:30:44.920Z,1009.07
2019-05-05T03:31:25.678Z,1009.12
2019-05-05T03:32:05.461Z,1009.11
2019-05-05T03:32:45.485Z,1009.14
2019-05-05T03:33:24.981Z,1009.1
2019-05-05T03:34:05.821Z,1009.11
2019-05-05T03:34:45.269Z,1009.16
2019-05-05T03:35:25.843Z,1009.11
2019-05-05T03:36:06.423Z,1009.11
2019-05-05T03:36:46.994Z,1009.1
2019-05-05T03:37:27.562Z,1009.08
2019-05-05T03:38:08.121Z,1009.13
2019-05-05T03:38:48.704Z,1009.15
2019-05-05T03:39:29.269Z,1009.18
2019-05-05T03:40:09.824Z,1009.2
2019-05-05T03:40:50.429Z,1009.15
2019-05-05T03:41:30.979Z,1009.18
2019-05-05T03:42:13.400Z,1009.18
2019-05-05T03:42:53.561Z,1009.2
2019-05-05T03:43:34.195Z,1009.23
2019-05-05T03:44:14.086Z,1009.16
2019-05-05T03:44:54.473Z,1009.18
2019-05-05T03:45:34.408Z,1009.2
2019-05-05T03:46:14.996Z,1009.25
2019-05-05T03:46:55.537Z,1009.24
2019-05-05T03:47:36.094Z,1009.28
2019-05-05T03:48:16.651Z,1009.3
2019-05-05T03:48:57.200Z,1009.34
2019-05-05T03:49:37.776Z,1009.36
2019-05-05T03:50:18.364Z,1009.38
2019-05-05T03:50:58.936Z,1009.38
2019-05-05T03:51:39.497Z,1009.41
2019-05-05T03:52:20.063Z,1009.41
2019-05-05T03:53:00.629Z,1009.44
2019-05-05T03:53:41.176Z,1009.41
2019-05-05T03:54:23.671Z,1009.44
2019-05-05T03:55:03.776Z,1009.48
2019-05-05T03:55:43.899Z,1009.5
2019-05-05T03:56:24.144Z,1009.47
2019-05-05T03:57:03.952Z,1009.46
2019-05-05T03:57:44.665Z,1009.47
2019-05-05T03:58:25.083Z,1009.46
2019-05-05T03:59:05.660Z,1009.46
2019-05-05T03:59:46.208Z,1009.44
2019-05-05T04:00:26.765Z,1009.45
2019-05-05T04:01:07.308Z,1009.44
2019-05-05T04:01:47.862Z,1009.39
2019-05-05T04:02:28.426Z,1009.42
2019-05-05T04:03:08.995Z,1009.41
2019-05-05T04:03:49.554Z,1009.4
2019-05-05T04:04:30.129Z,1009.4
2019-05-05T04:05:10.691Z,1009.44
2019-05-05T04:05:51.262Z,1009.47
2019-05-05T04:06:33.567Z,1009.44
2019-05-05T04:07:13.924Z,1009.47
2019-05-05T04:07:54.510Z,1009.44
2019-05-05T04:08:33.962Z,1009.49
2019-05-05T04:09:14.030Z,1009.48
2019-05-05T04:09:54.595Z,1009.48
2019-05-05T04:10:35.153Z,1009.5
2019-05-05T04:11:15.725Z,1009.5
2019-05-05T04:11:56.286Z,1009.49
2019-05-05T04:12:36.848Z,1009.53
2019-05-05T04:13:17.402Z,1009.58
2019-05-05T04:13:57.953Z,1009.54
2019-05-05T04:14:38.522Z,1009.52
2019-05-05T04:15:19.078Z,1009.56
2019-05-05T04:15:59.624Z,1009.55
2019-05-05T04:16:40.183Z,1009.57
2019-05-05T04:17:20.758Z,1009.6
2019-05-05T04:18:01.306Z,1009.56
2019-05-05T04:18:43.550Z,1009.57
2019-05-05T04:19:23.658Z,1009.6
2019-05-05T04:20:03.780Z,1009.57
2019-05-05T04:20:44.138Z,1009.61
2019-05-05T04:21:33.094Z,1009.63
2019-05-05T04:22:04.691Z,1009.62
2019-05-05T04:22:45.253Z,1009.62
2019-05-05T04:23:25.807Z,1009.66
2019-05-05T04:24:06.362Z,1009.65
2019-05-05T04:24:46.923Z,1009.64
2019-05-05T04:25:27.494Z,1009.65
2019-05-05T04:26:08.062Z,1009.69
2019-05-05T04:26:48.612Z,1009.72
2019-05-05T04:27:29.167Z,1009.73
2019-05-05T04:28:09.740Z,1009.73
2019-05-05T04:28:50.301Z,1009.73
2019-05-05T04:29:30.853Z,1009.77
2019-05-05T04:30:11.449Z,1009.77
2019-05-05T04:30:53.653Z,1009.73
2019-05-05T04:31:34.515Z,1009.78
2019-05-05T04:32:13.968Z,1009.77
2019-05-05T04:32:54.531Z,1009.78
2019-05-05T04:33:34.476Z,1009.78
2019-05-05T04:34:15.041Z,1009.81
2019-05-05T04:34:55.598Z,1009.78
2019-05-05T04:35:36.145Z,1009.77
2019-05-05T04:36:16.708Z,1009.74
2019-05-05T04:36:57.260Z,1009.79
2019-05-05T04:37:37.811Z,1009.79
2019-05-05T04:38:18.382Z,1009.79
2019-05-05T04:38:58.939Z,1009.79
2019-05-05T04:39:39.494Z,1009.79
2019-05-05T04:40:20.043Z,1009.81
2019-05-05T04:41:00.592Z,1009.8
2019-05-05T04:41:41.147Z,1009.8
2019-05-05T04:42:21.714Z,1009.83
2019-05-05T04:43:03.847Z,1009.84
2019-05-05T04:43:44.134Z,1009.84
2019-05-05T04:44:23.694Z,1009.86
2019-05-05T04:46:36.225Z,1009.86
2019-05-05T04:47:16.823Z,1009.85
2019-05-05T04:47:57.386Z,1009.85
2019-05-05T04:48:38.683Z,1009.89
2019-05-05T04:49:18.548Z,1009.9
2019-05-05T04:49:59.164Z,1009.89
2019-05-05T04:50:39.719Z,1009.86
2019-05-05T04:51:20.264Z,1009.85
2019-05-05T04:52:00.822Z,1009.9
2019-05-05T04:52:42.998Z,1009.88
2019-05-05T04:53:23.909Z,1009.85
2019-05-05T04:54:03.750Z,1009.84
2019-05-05T04:54:43.893Z,1009.84
2019-05-05T04:55:24.433Z,1009.86
2019-05-05T04:56:04.354Z,1009.83
2019-05-05T04:56:44.902Z,1009.82
2019-05-05T04:57:25.290Z,1009.86
2019-05-05T04:58:05.848Z,1009.83
2019-05-05T04:58:46.415Z,1009.84
2019-05-05T04:59:26.979Z,1009.84
2019-05-05T05:00:07.530Z,1009.83
2019-05-05T05:00:48.100Z,1009.83
2019-05-05T05:01:28.658Z,1009.85
2019-05-05T05:02:09.209Z,1009.85
2019-05-05T05:02:49.786Z,1009.86
2019-05-05T05:03:30.348Z,1009.83
2019-05-05T05:04:10.920Z,1009.85
2019-05-05T05:04:53.473Z,1009.86
2019-05-05T05:05:33.716Z,1009.86
2019-05-05T05:06:14.454Z,1009.86
2019-05-05T05:06:54.181Z,1009.89
2019-05-05T05:07:34.443Z,1009.86
2019-05-05T05:08:14.306Z,1009.87
2019-05-05T05:08:54.876Z,1009.87
2019-05-05T05:09:35.441Z,1009.91
2019-05-05T05:10:16.786Z,1009.89
2019-05-05T05:10:58.798Z,1009.95
2019-05-05T05:11:38.996Z,1009.93
2019-05-05T05:12:19.830Z,1009.93
2019-05-05T05:13:00.414Z,1009.93
2019-05-05T05:13:40.979Z,1009.88
2019-05-05T05:14:21.532Z,1009.91
2019-05-05T05:15:04.021Z,1009.92
2019-05-05T05:15:44.594Z,1009.94
2019-05-05T05:16:24.223Z,1009.92
2019-05-05T05:17:03.908Z,1009.88
2019-05-05T05:17:44.528Z,1009.93
2019-05-05T05:18:25.023Z,1009.92
2019-05-05T05:19:05.575Z,1009.94
2019-05-05T05:19:46.139Z,1009.94
2019-05-05T05:20:26.699Z,1009.87
2019-05-05T05:21:07.262Z,1009.88
2019-05-05T05:21:58.205Z,1009.89
2019-05-05T05:22:28.427Z,1009.92
2019-05-05T05:23:09.016Z,1009.9
2019-05-05T05:23:49.575Z,1009.92
2019-05-05T05:24:30.154Z,1009.91
2019-05-05T05:25:10.701Z,1009.92
2019-05-05T05:25:51.365Z,1009.93
2019-05-05T05:26:33.563Z,1009.92
2019-05-05T05:27:13.838Z,1009.93
2019-05-05T05:27:53.593Z,1009.92
2019-05-05T05:28:34.474Z,1009.95
2019-05-05T05:29:15.213Z,1009.97
2019-05-05T05:29:55.579Z,1009.97
2019-05-05T05:30:36.150Z,1010.02
2019-05-05T05:31:17.054Z,1009.98
2019-05-05T05:31:57.608Z,1009.99
2019-05-05T05:32:39.802Z,1009.99
2019-05-05T05:33:18.744Z,1010.02
2019-05-05T05:33:59.310Z,1010.05
2019-05-05T05:34:39.879Z,1010
2019-05-05T05:35:20.786Z,1010.03
2019-05-05T05:36:01.173Z,1010.09
2019-05-05T05:36:41.731Z,1010.09
2019-05-05T05:37:23.971Z,1010.13
2019-05-05T05:38:04.573Z,1010.11
2019-05-05T05:38:43.796Z,1010.14
2019-05-05T05:39:24.476Z,1010.25
2019-05-05T05:40:04.595Z,1010.2
2019-05-05T05:40:45.725Z,1010.18
2019-05-05T05:41:26.280Z,1010.22
2019-05-05T05:42:06.864Z,1010.23
2019-05-05T05:42:47.430Z,1010.17
2019-05-05T05:43:28.143Z,1010.18
2019-05-05T05:44:08.688Z,1010.29
2019-05-05T05:44:49.250Z,1010.44
2019-05-05T05:45:29.828Z,1010.66
2019-05-05T05:46:10.387Z,1010.71
2019-05-05T05:46:50.955Z,1010.76
2019-05-05T05:47:33.661Z,1010.69
2019-05-05T05:48:14.157Z,1010.79
2019-05-05T05:48:53.841Z,1010.77
2019-05-05T05:49:34.596Z,1010.79
2019-05-05T05:50:14.272Z,1010.85
2019-05-05T05:50:54.372Z,1010.82
2019-05-05T05:51:34.927Z,1010.84
2019-05-05T05:52:18.895Z,1010.84
2019-05-05T05:52:56.110Z,1010.91
2019-05-05T05:53:36.666Z,1010.92
2019-05-05T05:54:17.235Z,1010.97
2019-05-05T05:54:57.798Z,1010.96
2019-05-05T05:55:38.360Z,1010.96
2019-05-05T05:56:18.908Z,1010.98
2019-05-05T05:56:59.487Z,1011.09
2019-05-05T05:57:40.099Z,1011.1
2019-05-05T05:58:20.681Z,1011.04
2019-05-05T05:59:01.247Z,1011.01
2019-05-05T05:59:41.829Z,1010.83
2019-05-05T06:00:23.714Z,1010.71
2019-05-05T06:01:04.277Z,1010.71
2019-05-05T06:01:43.787Z,1010.67
2019-05-05T06:02:24.294Z,1010.69
2019-05-05T06:03:04.823Z,1010.71
2019-05-05T06:03:45.679Z,1010.75
2019-05-05T06:04:27.182Z,1010.75
2019-05-05T06:05:08.311Z,1010.75
2019-05-05T06:05:49.579Z,1010.76
2019-05-05T06:06:30.918Z,1010.8
2019-05-05T06:07:14.065Z,1010.82
2019-05-05T06:07:54.404Z,1010.84
2019-05-05T06:08:35.074Z,1010.8
2019-05-05T06:09:16.327Z,1010.81
2019-05-05T06:09:57.517Z,1010.86
2019-05-05T06:10:38.780Z,1010.89
2019-05-05T06:11:20.016Z,1010.93
2019-05-05T06:12:01.128Z,1010.86
2019-05-05T06:12:42.373Z,1010.9
2019-05-05T06:13:24.152Z,1010.9
2019-05-05T06:14:04.916Z,1010.93
2019-05-05T06:14:46.065Z,1010.92
2019-05-05T06:15:26.778Z,1010.91
2019-05-05T06:16:07.362Z,1010.88
2019-05-05T06:16:47.952Z,1010.96
2019-05-05T06:17:28.517Z,1010.93
2019-05-05T06:18:09.083Z,1011
2019-05-05T06:18:49.666Z,1010.99
2019-05-05T06:19:30.230Z,1010.99
2019-05-05T06:20:10.796Z,1011.02
2019-05-05T06:20:51.349Z,1011.02
2019-05-05T06:21:33.713Z,1011.02
2019-05-05T06:22:15.153Z,1011.05
2019-05-05T06:22:53.620Z,1011.07
2019-05-05T06:23:34.360Z,1011.08
2019-05-05T06:24:14.184Z,1011.07
2019-05-05T06:24:54.751Z,1011.08
2019-05-05T06:25:37.933Z,1011.09
2019-05-05T06:26:15.891Z,1011.09
2019-05-05T06:26:56.471Z,1011.09
2019-05-05T06:27:37.043Z,1011.12
2019-05-05T06:28:17.610Z,1011.12
2019-05-05T06:28:58.174Z,1011.13
2019-05-05T06:29:38.740Z,1011.07
2019-05-05T06:30:19.298Z,1011.1
2019-05-05T06:30:59.881Z,1011.08
2019-05-05T06:31:40.467Z,1011.1
2019-05-05T06:32:21.199Z,1011.09
2019-05-05T06:33:01.774Z,1011.1
2019-05-05T06:33:43.790Z,1011.12
2019-05-05T06:34:24.392Z,1011.12
2019-05-05T06:35:03.716Z,1011.09
2019-05-05T06:35:44.386Z,1011.1
2019-05-05T06:36:24.613Z,1011.09
2019-05-05T06:37:05.190Z,1011.1
2019-05-05T06:37:46.768Z,1011.09
2019-05-05T06:38:26.339Z,1011.13
2019-05-05T06:39:06.918Z,1011.15
2019-05-05T06:39:47.483Z,1011.14
2019-05-05T06:40:28.050Z,1011.1
2019-05-05T06:41:08.627Z,1011.14
2019-05-05T06:41:49.213Z,1011.15
2019-05-05T06:42:29.775Z,1011.17
2019-05-05T06:43:10.345Z,1011.2
2019-05-05T06:43:50.926Z,1011.19
2019-05-05T06:44:33.655Z,1011.21
2019-05-05T06:45:12.062Z,1011.25
2019-05-05T06:45:53.524Z,1011.25
2019-05-05T06:46:34.210Z,1011.27
2019-05-05T06:47:13.767Z,1011.27
2019-05-05T06:47:54.331Z,1011.29
2019-05-05T06:48:34.902Z,1011.28
2019-05-05T06:49:15.473Z,1011.28
2019-05-05T06:49:56.034Z,1011.3
2019-05-05T06:50:36.602Z,1011.32
2019-05-05T06:51:17.181Z,1011.34
2019-05-05T06:51:57.757Z,1011.34
2019-05-05T06:52:44.100Z,1011.32
2019-05-05T06:53:19.823Z,1011.33
2019-05-05T06:54:00.369Z,1011.3
2019-05-05T06:54:40.941Z,1011.3
2019-05-05T06:55:21.614Z,1011.3
2019-05-05T06:56:04.035Z,1011.31
2019-05-05T06:56:44.474Z,1011.33
2019-05-05T06:57:24.772Z,1011.31
2019-05-05T06:58:05.456Z,1011.29
2019-05-05T06:58:46.030Z,1011.33
2019-05-05T06:59:26.758Z,1011.33
2019-05-05T07:00:07.970Z,1011.32
2019-05-05T07:00:49.502Z,1011.35
2019-05-05T07:01:30.289Z,1011.41
2019-05-05T07:02:10.862Z,1011.37
2019-05-05T07:02:51.453Z,1011.34
2019-05-05T07:03:33.606Z,1011.36
2019-05-05T07:04:14.636Z,1011.34
2019-05-05T07:04:55.490Z,1011.36
2019-05-05T07:05:36.898Z,1011.37
2019-05-05T07:06:18.017Z,1011.35
2019-05-05T07:06:59.197Z,1011.35
2019-05-05T07:07:39.758Z,1011.37
2019-05-05T07:08:20.340Z,1011.36
2019-05-05T07:09:01.152Z,1011.38
2019-05-05T07:09:43.992Z,1011.35
2019-05-05T07:10:24.431Z,1011.34
2019-05-05T07:11:04.365Z,1011.35
2019-05-05T07:11:45.738Z,1011.38
2019-05-05T07:12:25.374Z,1011.39
2019-05-05T07:13:05.960Z,1011.38
2019-05-05T07:13:46.526Z,1011.35
2019-05-05T07:14:27.097Z,1011.37
2019-05-05T07:15:07.667Z,1011.35
2019-05-05T07:15:48.237Z,1011.36
2019-05-05T07:16:28.794Z,1011.32
2019-05-05T07:17:09.390Z,1011.35
2019-05-05T07:17:49.965Z,1011.34
2019-05-05T07:18:30.538Z,1011.33
2019-05-05T07:19:11.112Z,1011.35
2019-05-05T07:19:54.129Z,1011.35
2019-05-05T07:20:34.459Z,1011.37
2019-05-05T07:21:14.198Z,1011.35
2019-05-05T07:21:53.876Z,1011.36
2019-05-05T07:22:34.639Z,1011.37
2019-05-05T07:23:15.789Z,1011.36
2019-05-05T07:23:56.311Z,1011.34
2019-05-05T07:24:36.882Z,1011.39
2019-05-05T07:25:17.465Z,1011.35
2019-05-05T07:25:58.023Z,1011.36
2019-05-05T07:26:38.606Z,1011.36
2019-05-05T07:27:19.179Z,1011.4
2019-05-05T07:27:59.744Z,1011.34
2019-05-05T07:28:40.358Z,1011.33
2019-05-05T07:29:20.938Z,1011.36
2019-05-05T07:30:01.510Z,1011.35
2019-05-05T07:33:00.579Z,1011.35
2019-05-05T07:33:41.149Z,1011.33
2019-05-05T07:34:21.741Z,1011.36
2019-05-05T07:35:04.056Z,1011.34
2019-05-05T07:35:55.260Z,1011.35
2019-05-05T07:36:24.928Z,1011.35
2019-05-05T07:37:04.035Z,1011.3
2019-05-05T07:37:44.655Z,1011.35
2019-05-05T07:38:25.220Z,1011.39
2019-05-05T07:39:05.825Z,1011.38
2019-05-05T07:39:46.454Z,1011.37
2019-05-05T07:40:27.052Z,1011.4
2019-05-05T07:41:07.623Z,1011.44
2019-05-05T07:41:48.195Z,1011.39
2019-05-05T08:13:52.123Z,1011.42
2019-05-05T08:14:33.694Z,1011.39
2019-05-05T08:15:14.743Z,1011.41
2019-05-05T08:15:59.296Z,1011.35
2019-05-05T08:16:34.406Z,1011.37
2019-05-05T08:17:14.967Z,1011.39
2019-05-05T08:17:55.544Z,1011.33
2019-05-05T08:18:36.146Z,1011.35
2019-05-05T08:19:16.705Z,1011.34
2019-05-05T08:19:57.296Z,1011.3
2019-05-05T08:20:37.858Z,1011.3
2019-05-05T08:23:08.213Z,1011.31
2019-05-05T08:23:46.492Z,1011.31
2019-05-05T08:24:27.064Z,1011.33
2019-05-05T08:25:07.622Z,1011.41
2019-05-05T08:25:48.197Z,1011.37
2019-05-05T08:26:28.757Z,1011.36
2019-05-05T08:27:09.339Z,1011.37
2019-05-05T08:27:49.899Z,1011.39
2019-05-05T08:28:30.476Z,1011.38
2019-05-05T08:29:11.037Z,1011.37
2019-05-05T08:29:51.591Z,1011.41
2019-05-05T08:30:33.641Z,1011.41
2019-05-05T08:31:14.439Z,1011.41
2019-05-05T08:31:53.706Z,1011.42
2019-05-05T08:32:35.640Z,1011.46
2019-05-05T08:33:14.421Z,1011.44
2019-05-05T08:33:54.978Z,1011.39
2019-05-05T08:34:35.544Z,1011.41
2019-05-05T08:35:16.099Z,1011.4
2019-05-05T08:35:56.669Z,1011.45
2019-05-05T08:36:39.384Z,1011.4
2019-05-05T08:37:17.793Z,1011.43
2019-05-05T08:37:58.362Z,1011.4
2019-05-05T08:38:38.932Z,1011.42
2019-05-05T08:39:21.404Z,1011.47
2019-05-05T08:40:00.047Z,1011.43
2019-05-05T08:40:40.612Z,1011.43
2019-05-05T08:41:21.174Z,1011.43
2019-05-05T08:42:04.019Z,1011.37
2019-05-05T08:42:44.315Z,1011.42
2019-05-05T08:43:24.114Z,1011.42
2019-05-05T08:44:03.736Z,1011.47
2019-05-05T08:44:44.685Z,1011.44
2019-05-05T08:45:26.692Z,1011.41
2019-05-05T08:46:05.138Z,1011.45
2019-05-05T08:46:45.706Z,1011.4
2019-05-05T08:47:28.150Z,1011.46
2019-05-05T08:48:06.819Z,1011.42
2019-05-05T08:48:47.384Z,1011.53
2019-05-05T08:49:27.952Z,1011.51
2019-05-05T08:50:08.520Z,1011.53
2019-05-05T08:50:49.090Z,1011.52
2019-05-05T08:51:29.690Z,1011.51
2019-05-05T08:52:10.252Z,1011.49
2019-05-05T08:52:50.830Z,1011.51
2019-05-05T08:53:42.318Z,1011.49
2019-05-05T08:54:14.097Z,1011.48
2019-05-05T08:54:54.102Z,1011.42